Time;durP1;ratioP1;P1;durP2;ratioP2;P2;SDS_P1;SDS_P2;PMS_P1;PMS_P2;Temp;Humidity;BMP_temperature;BMP_pressure;BME280_temperature;BME280_humidity;BME280_pressure;Samples;Min_cycle;Max_cycle;Signal;HPM_P1;HPM_P2
2023/01/11 00:00:37;;;;;;;2.10;1.40;;;;;;;17.83;47.79;100521.09;5024721;28;20109;-58
2023/01/11 00:03:04;;;;;;;1.67;1.48;;;;;;;17.83;47.70;100526.47;5024453;28;20018;-56
2023/01/11 00:05:30;;;;;;;1.65;1.50;;;;;;;17.78;48.19;100518.94;5024472;28;20041;-54
2023/01/11 00:07:55;;;;;;;2.60;1.63;;;;;;;17.82;47.91;100519.44;5024610;28;20022;-55
2023/01/11 00:10:21;;;;;;;2.45;1.30;;;;;;;17.81;47.96;100515.06;5024609;28;20022;-54
2023/01/11 00:12:46;;;;;;;2.13;1.48;;;;;;;17.81;48.08;100507.00;5024527;28;20018;-54
2023/01/11 00:15:12;;;;;;;2.90;1.63;;;;;;;17.80;47.82;100508.00;5024615;28;20033;-54
2023/01/11 00:17:38;;;;;;;1.67;1.20;;;;;;;17.80;48.11;100506.16;5024033;28;20102;-57
2023/01/11 00:20:03;;;;;;;1.52;1.20;;;;;;;17.80;47.80;100505.31;5024495;28;20026;-54
2023/01/11 00:22:29;;;;;;;2.90;1.50;;;;;;;17.79;48.18;100488.34;5024342;28;20042;-54
2023/01/11 00:24:54;;;;;;;2.13;1.10;;;;;;;17.80;48.04;100499.94;5024136;28;20036;-55
2023/01/11 00:27:19;;;;;;;3.03;1.48;;;;;;;17.80;47.85;100494.56;5024178;28;20026;-55
2023/01/11 00:29:44;;;;;;;1.55;1.45;;;;;;;17.78;47.97;100496.59;5024666;28;20176;-55
2023/01/11 00:32:10;;;;;;;1.48;1.10;;;;;;;17.78;48.18;100494.72;5024307;28;20265;-54
2023/01/11 00:34:35;;;;;;;1.85;1.02;;;;;;;17.78;47.94;100494.72;5023951;28;20049;-55
2023/01/11 00:37:01;;;;;;;1.60;1.10;;;;;;;17.79;48.04;100495.56;5024421;28;20085;-56
2023/01/11 00:39:26;;;;;;;1.63;1.15;;;;;;;17.74;48.14;100482.63;5028389;28;20109;-54
2023/01/11 00:50:04;;;;;;;3.75;1.65;;;;;;;17.77;48.11;100487.69;5028083;28;20033;-57
2023/01/11 00:52:29;;;;;;;2.22;1.42;;;;;;;17.74;48.09;100479.94;5027947;28;20029;-54
2023/01/11 00:54:55;;;;;;;2.47;1.33;;;;;;;17.75;48.12;100478.94;5027936;28;20085;-55
2023/01/11 00:57:20;;;;;;;2.55;1.20;;;;;;;17.74;48.14;100472.72;5027965;28;20030;-53
2023/01/11 00:59:45;;;;;;;1.13;1.00;;;;;;;17.75;47.95;100481.63;5027654;28;20072;-55
2023/01/11 01:02:11;;;;;;;1.52;1.00;;;;;;;17.75;48.13;100468.19;5027837;28;20064;-56
2023/01/11 01:04:37;;;;;;;2.75;1.20;;;;;;;17.76;48.18;100475.25;5010107;28;20034;-56
2023/01/11 01:07:03;;;;;;;1.58;1.17;;;;;;;17.74;47.89;100474.56;5027851;28;20109;-54
2023/01/11 01:09:28;;;;;;;2.25;1.35;;;;;;;17.74;47.92;100470.03;5027602;28;20021;-53
2023/01/11 01:11:54;;;;;;;1.73;1.10;;;;;;;17.76;48.24;100469.88;5027740;28;20034;-53
2023/01/11 01:14:25;;;;;;;2.03;1.25;;;;;;;17.73;48.23;100459.44;5027721;28;20061;-55
2023/01/11 01:16:51;;;;;;;1.45;1.05;;;;;;;17.74;48.16;100459.28;5027508;28;20029;-54
2023/01/11 01:19:17;;;;;;;1.90;1.10;;;;;;;17.73;48.39;100454.03;5027051;28;20037;-54
2023/01/11 01:21:42;;;;;;;2.53;1.20;;;;;;;17.72;47.81;100465.81;5027575;28;20465;-55
2023/01/11 01:24:08;;;;;;;1.70;1.10;;;;;;;17.72;47.90;100466.66;5027533;28;20447;-56
2023/01/11 01:26:33;;;;;;;2.72;1.67;;;;;;;17.66;47.96;100455.72;5027528;28;20025;-57
2023/01/11 01:28:58;;;;;;;1.98;0.90;;;;;;;17.72;48.38;100463.97;5027425;28;20036;-53
2023/01/11 01:31:23;;;;;;;1.33;1.20;;;;;;;17.71;48.06;100447.97;5027231;28;20030;-53
2023/01/11 01:33:49;;;;;;;1.90;1.20;;;;;;;17.72;48.17;100453.22;5026762;28;20749;-52
2023/01/11 01:36:14;;;;;;;1.95;1.25;;;;;;;17.70;48.15;100457.06;5027329;28;20112;-54
2023/01/11 01:38:39;;;;;;;1.33;1.20;;;;;;;17.69;48.12;100450.84;5026822;28;20038;-53
2023/01/11 01:41:05;;;;;;;1.33;1.05;;;;;;;17.66;48.04;100458.41;5027082;28;20025;-51
2023/01/11 01:43:51;;;;;;;1.63;1.00;;;;;;;17.72;47.92;100466.66;5027050;28;20028;-51
2023/01/11 01:46:17;;;;;;;1.48;1.10;;;;;;;17.72;48.17;100468.50;5022933;28;20057;-53
2023/01/11 01:48:48;;;;;;;1.00;0.90;;;;;;;17.72;48.08;100468.50;4989259;28;20053;-55
2023/01/11 01:51:18;;;;;;;1.42;0.98;;;;;;;17.71;48.05;100456.91;5007109;28;20026;-54
2023/01/11 01:53:46;;;;;;;1.20;0.95;;;;;;;17.64;48.22;100444.31;5022732;28;20026;-55
2023/01/11 01:56:19;;;;;;;1.10;1.00;;;;;;;17.59;48.30;100438.63;5026954;28;20399;-53
2023/01/11 01:58:49;;;;;;;1.27;0.90;;;;;;;17.71;48.23;100456.06;5009181;28;20037;-53
2023/01/11 02:04:02;;;;;;;1.67;1.10;;;;;;;17.71;48.18;100461.44;5006884;28;20803;-55
2023/01/11 02:06:27;;;;;;;1.67;1.20;;;;;;;17.72;48.33;100460.44;4989614;28;20037;-52
2023/01/11 02:08:59;;;;;;;1.50;0.80;;;;;;;17.69;48.22;100456.22;4989480;28;20299;-55
2023/01/11 02:11:31;;;;;;;2.35;1.05;;;;;;;17.66;48.07;100447.66;5006981;28;20030;-56
2023/01/11 02:14:03;;;;;;;1.48;1.00;;;;;;;17.69;48.35;100450.84;5007103;28;20030;-55
2023/01/11 02:16:28;;;;;;;1.20;1.02;;;;;;;17.69;48.30;100447.34;5014993;28;20018;-55
2023/01/11 02:18:55;;;;;;;2.42;1.40;;;;;;;17.70;48.17;100446.31;5026171;28;20029;-55
2023/01/11 02:21:25;;;;;;;2.65;1.10;;;;;;;17.69;48.00;100450.84;5026088;28;20038;-52
2023/01/11 02:24:03;;;;;;;1.50;1.02;;;;;;;17.70;48.25;100457.06;5008706;28;20045;-56
2023/01/11 02:26:47;;;;;;;1.15;0.82;;;;;;;17.70;48.31;100451.69;5026138;28;20093;-56
2023/01/11 02:29:43;;;;;;;1.13;1.02;;;;;;;17.70;48.10;100446.31;5026303;28;20081;-55
2023/01/11 02:32:17;;;;;;;0.93;0.88;;;;;;;17.70;48.18;100444.47;5008416;28;20029;-55
2023/01/11 02:35:05;;;;;;;1.27;0.80;;;;;;;17.68;48.20;100435.75;5025679;28;20030;-54
2023/01/11 02:37:50;;;;;;;3.05;1.58;;;;;;;17.69;48.33;100439.28;5008188;28;20142;-56
2023/01/11 02:40:24;;;;;;;2.22;1.20;;;;;;;17.68;48.36;100441.13;5008346;28;20089;-55
2023/01/11 02:46:00;;;;;;;1.25;0.88;;;;;;;17.68;48.40;100438.44;5011064;28;20029;-56
2023/01/11 02:48:31;;;;;;;1.63;1.00;;;;;;;17.67;48.39;100444.81;5008335;28;20029;-56
2023/01/11 02:51:01;;;;;;;1.52;0.90;;;;;;;17.68;48.53;100443.81;5008348;28;20022;-56
2023/01/11 02:53:43;;;;;;;1.35;0.98;;;;;;;17.68;48.30;100443.81;5025999;28;20018;-56
2023/01/11 02:56:15;;;;;;;1.02;0.80;;;;;;;17.68;48.27;100440.28;5007858;28;20581;-56
2023/01/11 02:58:42;;;;;;;1.33;0.80;;;;;;;17.67;48.36;100434.06;5007807;28;20084;-52
2023/01/11 03:01:08;;;;;;;1.17;0.90;;;;;;;17.67;48.39;100441.28;5025582;28;20093;-51
2023/01/11 03:03:33;;;;;;;1.35;1.00;;;;;;;17.67;48.44;100443.97;5025384;28;20017;-53
2023/01/11 03:06:25;;;;;;;1.40;1.05;;;;;;;17.67;48.27;100435.91;5025312;28;20026;-55
2023/01/11 03:09:22;;;;;;;0.70;0.70;;;;;;;17.66;48.39;100435.06;5021346;28;20050;-53
2023/01/11 03:15:04;;;;;;;1.00;0.90;;;;;;;17.65;48.31;100444.16;5010311;28;20049;-50
2023/01/11 03:17:48;;;;;;;0.90;0.90;;;;;;;17.66;48.33;100440.44;5025190;28;20176;-56
2023/01/11 03:20:25;;;;;;;1.05;0.95;;;;;;;17.66;48.31;100448.50;5025402;28;20030;-55
2023/01/11 03:23:22;;;;;;;0.80;0.80;;;;;;;17.66;48.47;100453.03;5025206;28;20037;-53
2023/01/11 03:25:57;;;;;;;1.00;0.90;;;;;;;17.65;48.54;100449.53;5007944;28;20022;-54
2023/01/11 03:28:37;;;;;;;0.93;0.75;;;;;;;17.65;48.31;100454.91;5005586;28;20026;-49
2023/01/11 03:31:15;;;;;;;1.30;0.88;;;;;;;17.60;48.58;100441.13;5005476;28;20351;-53
2023/01/11 03:34:01;;;;;;;0.98;0.90;;;;;;;17.65;48.47;100457.59;5010450;28;20104;-56
2023/01/11 03:36:52;;;;;;;1.15;1.02;;;;;;;17.65;48.31;100454.06;5007669;28;20379;-54
2023/01/11 03:39:32;;;;;;;0.75;0.75;;;;;;;17.65;48.39;100444.16;5025045;28;20046;-53
2023/01/11 03:41:59;;;;;;;1.73;0.90;;;;;;;17.65;48.47;100452.22;5024989;28;20459;-55
2023/01/11 03:44:27;;;;;;;1.35;0.70;;;;;;;17.66;48.41;100458.41;5024992;28;20040;-54
2023/01/11 03:46:56;;;;;;;1.10;1.00;;;;;;;17.65;48.57;100465.66;5007161;28;20037;-53
2023/01/11 03:49:29;;;;;;;1.77;1.08;;;;;;;17.62;48.37;100462.47;5007054;28;20024;-55
2023/01/11 03:51:57;;;;;;;0.70;0.70;;;;;;;17.66;48.44;100471.88;5007261;28;20374;-53
2023/01/11 03:54:23;;;;;;;0.80;0.80;;;;;;;17.66;48.35;100482.63;5007091;28;20056;-56
2023/01/11 03:57:09;;;;;;;0.90;0.80;;;;;;;17.66;48.35;100469.19;5024399;28;20030;-51
2023/01/11 03:59:34;;;;;;;0.90;0.80;;;;;;;17.66;48.32;100471.88;5006828;28;20068;-52
2023/01/11 04:02:00;;;;;;;1.13;0.82;;;;;;;17.65;48.47;100476.41;5006999;28;20029;-52
2023/01/11 04:04:26;;;;;;;0.70;0.70;;;;;;;17.65;48.33;100476.41;5024421;28;20034;-54
2023/01/11 04:06:51;;;;;;;0.80;0.80;;;;;;;17.66;48.53;100480.75;5024736;28;20029;-50
2023/01/11 04:09:16;;;;;;;0.70;0.70;;;;;;;17.66;48.29;100471.88;5024722;28;20022;-53
2023/01/11 04:11:42;;;;;;;1.10;0.90;;;;;;;17.66;48.48;100471.88;5024630;28;20026;-55
2023/01/11 04:14:07;;;;;;;0.70;0.70;;;;;;;17.66;48.28;100469.19;5024460;28;20041;-55
2023/01/11 04:16:32;;;;;;;0.90;0.85;;;;;;;17.66;48.57;100477.25;5024758;28;20026;-54
2023/01/11 04:18:57;;;;;;;0.68;0.68;;;;;;;17.65;48.29;100478.25;5024408;28;20470;-54
2023/01/11 04:21:23;;;;;;;0.98;0.70;;;;;;;17.65;48.60;100478.25;5024818;28;20033;-51
2023/01/11 04:23:48;;;;;;;1.35;1.10;;;;;;;17.66;48.25;100488.00;5023769;28;20045;-54
2023/01/11 04:26:16;;;;;;;0.82;0.82;;;;;;;17.65;48.24;100489.84;5024578;28;20121;-54
2023/01/11 04:28:42;;;;;;;1.83;0.80;;;;;;;17.66;48.26;100496.06;5024600;28;20024;-56
2023/01/11 04:31:07;;;;;;;1.15;0.82;;;;;;;17.65;48.20;100487.16;5024439;28;20061;-52
2023/01/11 04:33:32;;;;;;;1.50;1.00;;;;;;;17.64;48.25;100484.66;5024320;28;20034;-55
2023/01/11 04:35:58;;;;;;;0.82;0.75;;;;;;;17.64;48.34;100498.94;5024566;28;20049;-54
2023/01/11 04:38:25;;;;;;;0.85;0.63;;;;;;;17.65;48.50;100497.06;5023636;28;20049;-54
2023/01/11 04:42:17;;;;;;;0.95;0.70;;;;;;;17.66;48.60;100504.13;5006796;28;20030;-55
2023/01/11 04:43:35;;;;;;;1.10;0.70;;;;;;;17.65;48.61;100511.34;5024256;28;20033;-53
2023/01/11 04:46:00;;;;;;;2.08;1.08;;;;;;;17.66;48.33;100507.66;5024396;28;20034;-51
2023/01/11 04:48:26;;;;;;;0.70;0.70;;;;;;;17.66;48.51;100501.44;5024247;28;20040;-55
2023/01/11 04:50:51;;;;;;;0.95;0.70;;;;;;;17.66;48.61;100499.59;5024282;28;20057;-52
2023/01/11 04:53:16;;;;;;;1.02;0.80;;;;;;;17.66;48.51;100514.88;5024347;28;20088;-56
2023/01/11 04:55:42;;;;;;;0.70;0.70;;;;;;;17.66;48.65;100507.66;5024496;28;20046;-55
2023/01/11 04:58:07;;;;;;;1.15;0.60;;;;;;;17.66;48.37;100513.03;5024270;28;20026;-55
2023/01/11 05:00:32;;;;;;;0.60;0.60;;;;;;;17.67;48.37;100516.56;5024149;28;20392;-52
2023/01/11 05:02:58;;;;;;;0.90;0.90;;;;;;;17.65;48.44;100505.16;5024334;28;20034;-55
2023/01/11 05:05:23;;;;;;;1.30;0.82;;;;;;;17.65;48.66;100516.72;5023822;28;20033;-56
2023/01/11 05:07:49;;;;;;;0.60;0.60;;;;;;;17.65;48.55;100516.72;5023985;28;20026;-54
2023/01/11 05:10:14;;;;;;;1.10;0.70;;;;;;;17.65;48.62;100516.72;5008570;28;20045;-52
2023/01/11 05:12:39;;;;;;;1.02;0.70;;;;;;;17.66;48.48;100515.72;5024128;28;20382;-55
2023/01/11 05:15:06;;;;;;;1.85;0.90;;;;;;;17.67;48.56;100519.25;5023950;28;20106;-51
2023/01/11 05:17:31;;;;;;;0.80;0.60;;;;;;;17.66;48.65;100523.78;5023890;28;20522;-53
2023/01/11 05:19:56;;;;;;;0.60;0.60;;;;;;;17.65;48.48;100521.28;5023758;28;20030;-55
2023/01/11 05:22:21;;;;;;;1.10;1.00;;;;;;;17.65;48.82;100530.19;5024210;28;20036;-56
2023/01/11 05:24:47;;;;;;;0.65;0.65;;;;;;;17.66;48.42;100531.00;5024889;28;20024;-53
2023/01/11 05:27:12;;;;;;;0.95;0.70;;;;;;;17.66;48.68;100531.84;5027206;28;20049;-53
2023/01/11 05:29:37;;;;;;;1.38;0.70;;;;;;;17.66;48.58;100525.63;5004642;28;20037;-53
2023/01/11 05:32:03;;;;;;;0.70;0.70;;;;;;;17.67;48.69;100530.00;5007761;28;20132;-54
2023/01/11 05:34:28;;;;;;;0.70;0.70;;;;;;;17.66;48.22;100539.91;5018825;28;20040;-51
2023/01/11 05:36:53;;;;;;;0.60;0.60;;;;;;;17.64;48.36;100528.50;5027185;28;20033;-52
2023/01/11 05:39:18;;;;;;;0.68;0.65;;;;;;;17.67;48.43;100532.69;5026453;28;20029;-51
2023/01/11 05:41:44;;;;;;;0.60;0.60;;;;;;;17.67;48.63;100535.38;5027040;28;20062;-54
2023/01/11 05:46:54;;;;;;;0.75;0.70;;;;;;;17.67;48.82;100544.31;5027183;28;20037;-53
2023/01/11 05:49:20;;;;;;;0.80;0.80;;;;;;;17.67;48.66;100548.81;5026613;28;20025;-55
2023/01/11 05:51:45;;;;;;;0.70;0.70;;;;;;;17.67;48.64;100549.69;5027215;28;20467;-57
2023/01/11 05:54:13;;;;;;;0.85;0.85;;;;;;;17.67;48.80;100547.00;5026276;28;20116;-57
2023/01/11 05:56:39;;;;;;;1.13;0.77;;;;;;;17.68;49.03;100556.72;5025944;28;20090;-55
2023/01/11 05:59:04;;;;;;;2.65;0.80;;;;;;;17.69;48.84;100549.50;5025506;28;20098;-55
2023/01/11 06:01:30;;;;;;;1.02;0.80;;;;;;;17.69;48.69;100553.03;5024213;28;20045;-56
2023/01/11 06:03:55;;;;;;;0.88;0.82;;;;;;;17.70;48.79;100559.25;5023038;28;20057;-55
2023/01/11 06:06:21;;;;;;;0.65;0.65;;;;;;;17.69;48.91;100547.66;5007642;28;20038;-54
2023/01/11 06:08:46;;;;;;;0.63;0.63;;;;;;;17.71;48.95;100550.16;5023989;28;20029;-55
2023/01/11 06:11:13;;;;;;;1.33;0.82;;;;;;;17.66;48.75;100547.97;5026158;28;20068;-55
2023/01/11 06:13:38;;;;;;;1.70;0.70;;;;;;;17.64;48.92;100541.09;5025808;28;20048;-53
2023/01/11 06:16:10;;;;;;;0.70;0.70;;;;;;;17.72;48.92;100568.84;5026251;28;20029;-54
2023/01/11 06:18:46;;;;;;;0.63;0.63;;;;;;;17.74;48.95;100571.38;5025074;28;20158;-54
2023/01/11 06:21:12;;;;;;;0.95;0.65;;;;;;;17.74;48.90;100568.69;5024332;28;20048;-55
2023/01/11 06:23:39;;;;;;;0.80;0.80;;;;;;;17.75;49.22;100559.59;5026024;28;20025;-56
2023/01/11 06:26:07;;;;;;;0.80;0.80;;;;;;;17.77;49.40;100564.81;5026383;28;20030;-55
2023/01/11 06:28:33;;;;;;;0.90;0.70;;;;;;;17.76;49.38;100564.00;5025745;28;20022;-54
2023/01/11 06:30:58;;;;;;;1.58;0.80;;;;;;;17.78;49.44;100569.19;5025700;28;20034;-52
2023/01/11 06:33:25;;;;;;;1.30;0.75;;;;;;;17.80;49.49;100567.16;5023120;28;20053;-53
2023/01/11 06:35:52;;;;;;;0.93;0.70;;;;;;;17.80;49.78;100568.03;5025170;28;20032;-52
2023/01/11 06:38:18;;;;;;;1.95;0.88;;;;;;;17.82;49.61;100573.22;5024783;28;20046;-55
2023/01/11 06:40:53;;;;;;;2.00;0.73;;;;;;;17.82;49.90;100587.50;5025730;28;20463;-55
2023/01/11 06:43:19;;;;;;;0.75;0.75;;;;;;;17.83;49.76;100589.16;5022922;28;20038;-56
2023/01/11 06:45:44;;;;;;;0.93;0.80;;;;;;;17.85;50.05;100591.72;5025611;28;20037;-52
2023/01/11 06:48:10;;;;;;;2.10;0.70;;;;;;;17.85;49.82;100586.34;5014193;28;20057;-57
2023/01/11 06:50:35;;;;;;;1.42;0.70;;;;;;;17.86;50.07;100585.31;5020332;28;20065;-58
2023/01/11 06:53:01;;;;;;;0.70;0.70;;;;;;;17.88;50.26;100602.09;5023766;28;20060;-54
2023/01/11 06:55:27;;;;;;;0.68;0.68;;;;;;;17.89;49.89;100606.50;5024174;28;20030;-55
2023/01/11 06:57:52;;;;;;;1.02;0.70;;;;;;;17.89;50.09;100601.97;5023514;28;20061;-58
2023/01/11 07:00:18;;;;;;;5.05;0.80;;;;;;;17.90;49.90;100605.50;5019215;28;20061;-45
2023/01/11 07:02:44;;;;;;;1.50;0.75;;;;;;;17.92;50.00;100614.22;5018315;28;20064;-47
2023/01/11 07:05:10;;;;;;;1.58;0.63;;;;;;;17.91;50.09;100610.69;5023852;28;20196;-47
2023/01/11 07:07:36;;;;;;;1.40;0.68;;;;;;;17.92;50.27;100614.22;5013995;28;20022;-46
2023/01/11 07:10:02;;;;;;;2.45;0.85;;;;;;;17.92;50.10;100614.22;5023433;28;20030;-49
2023/01/11 07:12:27;;;;;;;1.58;1.00;;;;;;;17.92;50.34;100612.34;5025036;28;20033;-44
2023/01/11 07:14:52;;;;;;;1.52;0.75;;;;;;;17.94;50.09;100623.81;5025068;28;20580;-46
2023/01/11 07:17:18;;;;;;;1.08;0.70;;;;;;;17.95;50.02;100632.72;5024212;28;20045;-48
2023/01/11 07:19:43;;;;;;;2.85;0.90;;;;;;;17.97;50.23;100636.94;5024301;28;20074;-44
2023/01/11 07:22:08;;;;;;;1.10;0.70;;;;;;;17.98;49.94;100624.31;5024888;28;20029;-47
2023/01/11 07:24:34;;;;;;;1.40;0.75;;;;;;;17.97;50.24;100633.41;5024797;28;20021;-43
2023/01/11 07:27:01;;;;;;;1.50;0.70;;;;;;;17.99;50.06;100640.28;5025163;28;20032;-43
2023/01/11 07:29:26;;;;;;;1.75;1.02;;;;;;;17.99;50.31;100647.50;5018381;28;20051;-54
2023/01/11 07:31:52;;;;;;;2.00;0.80;;;;;;;17.89;50.15;100636.09;5024916;28;20021;-57
2023/01/11 07:34:17;;;;;;;1.92;0.88;;;;;;;18.01;50.08;100669.72;5021608;28;20348;-55
2023/01/11 07:36:43;;;;;;;2.47;1.00;;;;;;;17.96;50.13;100672.88;5024337;28;20030;-57
2023/01/11 07:39:08;;;;;;;2.08;0.80;;;;;;;18.01;50.08;100683.16;5024181;28;20026;-56
2023/01/11 07:44:17;;;;;;;2.05;1.23;;;;;;;17.92;50.34;100673.38;5024478;28;20037;-55
2023/01/11 07:46:43;;;;;;;3.45;1.00;;;;;;;18.01;50.23;100693.94;5023882;28;20030;-55
2023/01/11 07:49:08;;;;;;;1.60;0.90;;;;;;;18.01;50.23;100702.00;5019552;28;20034;-54
2023/01/11 07:51:34;;;;;;;2.03;0.90;;;;;;;18.03;50.53;100705.34;5023973;28;20041;-55
2023/01/11 07:54:01;;;;;;;5.25;1.33;;;;;;;18.07;50.08;100706.69;5024043;28;20095;-51
2023/01/11 07:56:27;;;;;;;1.63;0.82;;;;;;;18.10;50.24;100702.84;5025249;28;20040;-53
2023/01/11 07:58:52;;;;;;;3.15;1.10;;;;;;;18.04;49.97;100693.56;5024445;28;20035;-52
2023/01/11 08:01:17;;;;;;;2.45;0.85;;;;;;;18.09;49.98;100707.34;5024139;28;20098;-52
2023/01/11 08:03:43;;;;;;;5.68;1.25;;;;;;;18.11;49.68;100697.28;5018913;28;20026;-54
2023/01/11 08:06:08;;;;;;;2.08;1.45;;;;;;;18.13;50.02;100697.94;5024606;28;20026;-51
2023/01/11 08:08:33;;;;;;;4.47;1.20;;;;;;;18.17;49.65;100709.19;5024121;28;20088;-53
2023/01/11 08:16:26;;;;;;;2.83;1.13;;;;;;;18.17;49.88;100730.72;5024773;28;20029;-54
2023/01/11 08:18:52;;;;;;;1.67;1.00;;;;;;;18.16;49.78;100742.50;5024387;28;20038;-51
2023/01/11 08:21:17;;;;;;;3.25;1.00;;;;;;;18.13;49.94;100738.28;5024849;28;20053;-53
2023/01/11 08:23:43;;;;;;;4.55;1.35;;;;;;;18.13;49.93;100732.91;5024149;28;20049;-53
2023/01/11 08:26:08;;;;;;;2.22;1.05;;;;;;;18.16;49.80;100745.19;5024553;28;20026;-52
2023/01/11 08:28:33;;;;;;;2.90;1.10;;;;;;;17.99;49.62;100726.34;5024593;28;20097;-53
2023/01/11 08:30:59;;;;;;;2.70;1.13;;;;;;;18.16;49.46;100748.72;5024485;28;20033;-52
2023/01/11 08:33:24;;;;;;;5.05;1.70;;;;;;;18.13;49.16;100742.84;5021184;28;20455;-53
2023/01/11 08:35:49;;;;;;;4.70;1.30;;;;;;;18.18;49.73;100757.50;4987167;28;20034;-52
2023/01/11 08:38:14;;;;;;;3.78;1.23;;;;;;;18.17;49.22;100760.31;5004531;28;20054;-52
2023/01/11 08:40:39;;;;;;;3.40;1.35;;;;;;;18.16;49.13;100764.03;5018416;28;20125;-50
2023/01/11 08:43:05;;;;;;;2.63;1.33;;;;;;;18.18;49.28;100772.78;5024012;28;20479;-52
2023/01/11 08:45:30;;;;;;;4.90;1.35;;;;;;;18.18;49.05;100770.94;5024107;28;20088;-52
2023/01/11 08:47:58;;;;;;;3.92;1.77;;;;;;;18.16;49.06;100772.94;5024450;28;20076;-51
2023/01/11 08:50:23;;;;;;;3.63;1.20;;;;;;;18.20;49.06;100789.59;5024418;28;20491;-51
2023/01/11 08:52:49;;;;;;;3.10;1.42;;;;;;;18.19;48.93;100794.16;5024269;28;20056;-53
2023/01/11 08:55:15;;;;;;;3.30;1.20;;;;;;;18.14;49.03;100787.59;5023954;28;20029;-50
2023/01/11 08:57:40;;;;;;;4.60;1.50;;;;;;;18.20;48.92;100803.91;5024075;28;20026;-55
2023/01/11 09:00:06;;;;;;;1.90;1.10;;;;;;;18.19;49.00;100804.06;5027446;28;20026;-53
2023/01/11 09:02:32;;;;;;;3.55;1.50;;;;;;;18.20;48.87;100814.66;5027851;28;20038;-54
2023/01/11 09:04:57;;;;;;;4.07;1.35;;;;;;;18.22;48.99;100819.88;5027448;28;20033;-53
2023/01/11 09:07:23;;;;;;;3.45;1.20;;;;;;;18.20;48.68;100816.50;5027949;28;20034;-50
2023/01/11 09:09:49;;;;;;;2.50;1.30;;;;;;;18.21;49.02;100819.03;5009808;28;20060;-53
2023/01/11 09:12:14;;;;;;;3.28;1.25;;;;;;;18.14;48.75;100806.44;5027675;28;20029;-48
2023/01/11 09:14:40;;;;;;;3.85;1.40;;;;;;;18.20;48.99;100816.50;5027697;28;20030;-50
2023/01/11 09:17:05;;;;;;;4.05;1.40;;;;;;;18.19;48.87;100818.38;5027561;28;20034;-54
2023/01/11 09:19:32;;;;;;;3.80;1.40;;;;;;;18.18;48.95;100819.38;5027381;28;20037;-54
2023/01/11 09:22:00;;;;;;;5.68;1.80;;;;;;;18.18;48.72;100824.75;5028004;28;20034;-52
2023/01/11 09:24:25;;;;;;;5.88;1.92;;;;;;;18.16;48.73;100818.69;5027317;28;20068;-52
2023/01/11 09:26:50;;;;;;;3.67;1.30;;;;;;;18.20;48.78;100825.44;5027542;28;20033;-51
2023/01/11 09:29:16;;;;;;;3.25;1.20;;;;;;;18.20;48.53;100827.28;5027459;28;20040;-54
2023/01/11 09:31:41;;;;;;;3.03;1.45;;;;;;;18.18;48.58;100824.75;5027565;28;20034;-52
2023/01/11 09:34:09;;;;;;;3.92;1.40;;;;;;;18.18;48.81;100827.47;5026825;28;20029;-54
2023/01/11 09:36:35;;;;;;;4.15;1.50;;;;;;;18.19;48.61;100834.50;5027495;28;20382;-53
2023/01/11 09:39:04;;;;;;;6.60;1.50;;;;;;;18.18;48.58;100837.34;5026712;28;20483;-54
2023/01/11 09:41:53;;;;;;;4.60;1.20;;;;;;;18.19;48.73;100834.50;5009873;28;20056;-51
2023/01/11 09:44:24;;;;;;;5.10;1.48;;;;;;;18.11;48.79;100822.91;5027160;28;20029;-51
2023/01/11 09:46:53;;;;;;;8.82;3.15;;;;;;;18.18;48.54;100840.91;5010118;28;20060;-50
2023/01/11 09:49:28;;;;;;;3.92;1.45;;;;;;;18.19;48.52;100845.28;5009569;28;20084;-51
2023/01/11 09:52:12;;;;;;;3.25;1.42;;;;;;;18.19;48.67;100845.28;5027041;28;20033;-53
2023/01/11 09:54:37;;;;;;;4.03;1.60;;;;;;;18.20;48.68;100857.72;5009036;28;20506;-53
2023/01/11 09:57:22;;;;;;;4.70;1.50;;;;;;;18.19;48.60;100845.28;5009407;28;20029;-53
2023/01/11 10:00:00;;;;;;;3.88;1.50;;;;;;;18.22;48.36;100854.84;5009368;28;20018;-52
2023/01/11 10:02:38;;;;;;;4.70;1.48;;;;;;;18.21;48.48;100853.19;5009100;28;20545;-51
2023/01/11 10:05:57;;;;;;;4.82;1.40;;;;;;;18.22;48.31;100857.53;5026426;28;20052;-51
2023/01/11 10:08:42;;;;;;;3.03;1.35;;;;;;;18.24;48.19;100863.63;4965807;29;20126;-51
2023/01/11 10:11:27;;;;;;;2.97;1.35;;;;;;;18.23;48.23;100862.78;4964955;28;20043;-54
2023/01/11 10:14:14;;;;;;;5.78;1.90;;;;;;;18.19;48.51;100856.03;4965590;29;20039;-50
2023/01/11 10:17:29;;;;;;;3.92;1.38;;;;;;;18.27;48.16;100874.06;4965565;29;20043;-50
2023/01/11 10:20:01;;;;;;;3.90;1.48;;;;;;;18.27;48.27;100865.16;4950742;29;20055;-49
2023/01/11 10:22:35;;;;;;;5.32;1.98;;;;;;;18.28;48.19;100864.97;4949133;29;20475;-53
2023/01/11 10:25:09;;;;;;;3.58;1.25;;;;;;;18.32;48.21;100865.50;4950022;29;20125;-52
2023/01/11 10:27:39;;;;;;;2.45;1.20;;;;;;;18.31;48.14;100872.72;4950075;29;20046;-55
2023/01/11 10:37:09;;;;;;;4.13;1.35;;;;;;;18.39;48.08;100875.44;4965399;29;20042;-53
2023/01/11 10:40:05;;;;;;;5.38;1.90;;;;;;;18.35;47.85;100874.06;4965479;29;20717;-52
2023/01/11 10:42:30;;;;;;;4.30;1.67;;;;;;;18.43;47.74;100881.28;4973288;28;20049;-51
2023/01/11 10:45:05;;;;;;;3.45;1.60;;;;;;;18.43;47.81;100889.38;4989184;28;20057;-50
2023/01/11 10:47:38;;;;;;;6.05;1.90;;;;;;;18.43;47.64;100884.00;4988882;28;20061;-53
2023/01/11 10:50:15;;;;;;;3.70;1.55;;;;;;;18.41;47.67;100880.63;4989145;28;20030;-54
2023/01/11 10:52:46;;;;;;;3.78;1.30;;;;;;;18.46;47.44;100891.75;5004687;28;20045;-49
2023/01/11 10:55:13;;;;;;;4.05;1.70;;;;;;;18.49;47.41;100889.56;4989040;28;20030;-52
2023/01/11 10:57:57;;;;;;;3.83;1.90;;;;;;;18.51;47.67;100880.47;4988495;28;20026;-51
2023/01/11 11:00:37;;;;;;;2.92;1.40;;;;;;;18.52;47.42;100885.72;4996916;28;20065;-50
2023/01/11 11:03:42;;;;;;;6.15;1.77;;;;;;;18.53;47.65;100882.00;5007627;28;20057;-52
2023/01/11 11:06:26;;;;;;;3.28;1.60;;;;;;;18.53;47.43;100892.78;5008190;28;20022;-51
2023/01/11 11:08:52;;;;;;;6.40;1.83;;;;;;;18.52;47.59;100879.47;5025440;28;20024;-53
2023/01/11 11:11:21;;;;;;;4.88;1.73;;;;;;;18.53;47.73;100892.78;5007580;28;20045;-52
2023/01/11 11:13:54;;;;;;;4.93;1.60;;;;;;;18.54;47.48;100891.75;5024847;28;20049;-53
2023/01/11 11:16:22;;;;;;;5.15;2.10;;;;;;;18.54;47.64;100894.44;5023399;28;20025;-55
2023/01/11 11:18:54;;;;;;;4.53;1.83;;;;;;;18.54;47.91;100894.44;5024482;28;20071;-54
2023/01/11 11:21:32;;;;;;;5.97;1.65;;;;;;;18.55;47.59;100898.81;5025039;28;20113;-50
2023/01/11 11:24:00;;;;;;;5.85;1.70;;;;;;;18.55;47.66;100896.13;5024392;28;20080;-55
2023/01/11 11:26:40;;;;;;;4.25;1.65;;;;;;;18.58;48.05;100894.97;5004246;28;20034;-53
2023/01/11 11:29:07;;;;;;;5.55;2.10;;;;;;;18.56;47.83;100902.34;4988565;28;20019;-55
2023/01/11 11:31:34;;;;;;;5.13;2.08;;;;;;;18.60;48.34;100896.47;5013436;28;20029;-52
2023/01/11 11:34:12;;;;;;;4.30;1.80;;;;;;;18.58;48.16;100890.41;5024899;28;20032;-53
2023/01/11 11:36:42;;;;;;;5.95;2.17;;;;;;;18.54;48.19;100878.28;5025219;28;20034;-50
2023/01/11 11:39:17;;;;;;;6.88;2.15;;;;;;;18.62;48.10;100885.53;5024755;28;20084;-55
2023/01/11 11:42:06;;;;;;;4.30;1.60;;;;;;;18.63;48.04;100887.22;5024618;28;20029;-52
2023/01/11 11:44:31;;;;;;;7.35;2.10;;;;;;;18.65;48.49;100890.59;5010205;28;20037;-51
2023/01/11 11:47:02;;;;;;;4.47;1.65;;;;;;;18.66;48.43;100894.97;5024665;28;20113;-55
2023/01/11 11:49:30;;;;;;;7.10;2.28;;;;;;;18.67;48.56;100884.03;5023068;28;20014;-53
2023/01/11 11:51:56;;;;;;;5.03;2.15;;;;;;;18.69;48.34;100890.13;5023382;28;20021;-54
2023/01/11 11:54:31;;;;;;;4.65;1.70;;;;;;;18.69;48.49;100894.63;5006477;28;20041;-56
2023/01/11 11:56:58;;;;;;;4.88;1.55;;;;;;;18.66;48.17;100900.34;5022973;28;20549;-52
2023/01/11 11:59:27;;;;;;;6.97;2.20;;;;;;;18.71;48.55;100914.19;5024628;28;20022;-54
2023/01/11 12:01:59;;;;;;;6.43;1.80;;;;;;;18.74;48.25;100913.88;5024799;28;20029;-54
2023/01/11 12:04:39;;;;;;;5.55;2.50;;;;;;;18.76;48.19;100909.13;5006449;28;20037;-55
2023/01/11 12:07:08;;;;;;;6.47;1.80;;;;;;;18.78;48.41;100917.06;5025025;28;20041;-54
2023/01/11 12:09:34;;;;;;;6.88;1.85;;;;;;;18.82;48.03;100919.25;5006777;28;20033;-51